sensor_id;sensor_type;location;lat;lon;timestamp;P1;durP1;ratioP1;P2;durP2;ratioP2
47762;SDS011;33526;42.690;23.322;2023-12-20T00:01:31;199.15;;;99.55;;
47762;SDS011;33526;42.690;23.322;2023-12-20T00:03:59;182.20;;;90.95;;
47762;SDS011;33526;42.690;23.322;2023-12-20T00:06:25;195.38;;;95.63;;
47762;SDS011;33526;42.690;23.322;2023-12-20T00:08:50;194.45;;;94.55;;
47762;SDS011;33526;42.690;23.322;2023-12-20T00:11:16;204.45;;;99.10;;
47762;SDS011;33526;42.690;23.322;2023-12-20T00:13:41;186.07;;;95.88;;
47762;SDS011;33526;42.690;23.322;2023-12-20T00:16:06;215.10;;;103.25;;
47762;SDS011;33526;42.690;23.322;2023-12-20T00:18:32;196.90;;;94.22;;
47762;SDS011;33526;42.690;23.322;2023-12-20T00:20:57;215.15;;;103.63;;
47762;SDS011;33526;42.690;23.322;2023-12-20T00:23:23;213.02;;;103.25;;
47762;SDS011;33526;42.690;23.322;2023-12-20T00:25:48;210.05;;;105.10;;
47762;SDS011;33526;42.690;23.322;2023-12-20T00:28:14;228.82;;;111.10;;
47762;SDS011;33526;42.690;23.322;2023-12-20T00:30:40;245.45;;;117.97;;
47762;SDS011;33526;42.690;23.322;2023-12-20T00:33:05;232.77;;;111.65;;
47762;SDS011;33526;42.690;23.322;2023-12-20T00:35:30;213.77;;;107.25;;
47762;SDS011;33526;42.690;23.322;2023-12-20T00:37:56;222.50;;;106.53;;
47762;SDS011;33526;42.690;23.322;2023-12-20T00:40:21;185.73;;;93.78;;
47762;SDS011;33526;42.690;23.322;2023-12-20T00:42:47;192.45;;;95.60;;
47762;SDS011;33526;42.690;23.322;2023-12-20T00:45:13;215.70;;;100.85;;
47762;SDS011;33526;42.690;23.322;2023-12-20T00:47:39;209.75;;;101.72;;
47762;SDS011;33526;42.690;23.322;2023-12-20T00:50:05;211.88;;;103.80;;
47762;SDS011;33526;42.690;23.322;2023-12-20T00:52:31;196.93;;;95.63;;
47762;SDS011;33526;42.690;23.322;2023-12-20T00:54:57;188.55;;;94.10;;
47762;SDS011;33526;42.690;23.322;2023-12-20T00:57:22;191.80;;;96.93;;
47762;SDS011;33526;42.690;23.322;2023-12-20T00:59:48;191.02;;;93.78;;
47762;SDS011;33526;42.690;23.322;2023-12-20T01:02:13;205.98;;;96.03;;
47762;SDS011;33526;42.690;23.322;2023-12-20T01:04:39;199.88;;;96.07;;
47762;SDS011;33526;42.690;23.322;2023-12-20T01:07:04;202.73;;;99.32;;
47762;SDS011;33526;42.690;23.322;2023-12-20T01:09:30;195.52;;;99.57;;
47762;SDS011;33526;42.690;23.322;2023-12-20T01:11:57;199.93;;;97.80;;
47762;SDS011;33526;42.690;23.322;2023-12-20T01:14:22;212.30;;;104.47;;
47762;SDS011;33526;42.690;23.322;2023-12-20T01:16:47;240.43;;;114.80;;
47762;SDS011;33526;42.690;23.322;2023-12-20T01:19:13;246.55;;;122.65;;
47762;SDS011;33526;42.690;23.322;2023-12-20T01:21:41;264.27;;;128.32;;
47762;SDS011;33526;42.690;23.322;2023-12-20T01:24:07;316.27;;;151.38;;
47762;SDS011;33526;42.690;23.322;2023-12-20T01:26:32;310.27;;;151.30;;
47762;SDS011;33526;42.690;23.322;2023-12-20T01:28:58;327.75;;;160.80;;
47762;SDS011;33526;42.690;23.322;2023-12-20T01:31:23;344.33;;;171.93;;
47762;SDS011;33526;42.690;23.322;2023-12-20T01:33:49;371.80;;;181.02;;
47762;SDS011;33526;42.690;23.322;2023-12-20T01:36:14;353.00;;;173.40;;
47762;SDS011;33526;42.690;23.322;2023-12-20T01:38:45;360.15;;;177.02;;
47762;SDS011;33526;42.690;23.322;2023-12-20T01:41:11;354.48;;;173.77;;
47762;SDS011;33526;42.690;23.322;2023-12-20T01:43:36;350.42;;;163.98;;
47762;SDS011;33526;42.690;23.322;2023-12-20T01:46:02;317.90;;;141.82;;
47762;SDS011;33526;42.690;23.322;2023-12-20T01:48:28;285.15;;;142.20;;
47762;SDS011;33526;42.690;23.322;2023-12-20T01:50:54;307.83;;;142.02;;
47762;SDS011;33526;42.690;23.322;2023-12-20T01:53:21;315.27;;;148.82;;
47762;SDS011;33526;42.690;23.322;2023-12-20T01:55:49;291.00;;;139.98;;
47762;SDS011;33526;42.690;23.322;2023-12-20T01:58:17;295.85;;;144.43;;
47762;SDS011;33526;42.690;23.322;2023-12-20T02:00:43;305.52;;;150.07;;
47762;SDS011;33526;42.690;23.322;2023-12-20T02:03:09;302.50;;;145.20;;
47762;SDS011;33526;42.690;23.322;2023-12-20T02:05:35;309.23;;;150.57;;
47762;SDS011;33526;42.690;23.322;2023-12-20T02:08:02;305.48;;;144.68;;
47762;SDS011;33526;42.690;23.322;2023-12-20T02:10:27;305.55;;;147.45;;
47762;SDS011;33526;42.690;23.322;2023-12-20T02:12:54;295.92;;;142.07;;
47762;SDS011;33526;42.690;23.322;2023-12-20T02:15:19;310.23;;;146.40;;
47762;SDS011;33526;42.690;23.322;2023-12-20T02:17:45;308.58;;;147.35;;
47762;SDS011;33526;42.690;23.322;2023-12-20T02:20:13;312.20;;;152.52;;
47762;SDS011;33526;42.690;23.322;2023-12-20T02:22:38;323.25;;;152.43;;
47762;SDS011;33526;42.690;23.322;2023-12-20T02:25:04;311.83;;;147.50;;
47762;SDS011;33526;42.690;23.322;2023-12-20T02:27:29;308.00;;;143.95;;
47762;SDS011;33526;42.690;23.322;2023-12-20T02:29:55;310.85;;;145.00;;
47762;SDS011;33526;42.690;23.322;2023-12-20T02:32:21;296.08;;;141.75;;
47762;SDS011;33526;42.690;23.322;2023-12-20T02:34:49;304.90;;;140.07;;
47762;SDS011;33526;42.690;23.322;2023-12-20T02:37:14;302.88;;;140.43;;
47762;SDS011;33526;42.690;23.322;2023-12-20T02:39:40;301.88;;;136.80;;
47762;SDS011;33526;42.690;23.322;2023-12-20T02:42:05;268.17;;;126.03;;
47762;SDS011;33526;42.690;23.322;2023-12-20T02:44:33;245.07;;;112.80;;
47762;SDS011;33526;42.690;23.322;2023-12-20T02:46:59;252.13;;;113.40;;
47762;SDS011;33526;42.690;23.322;2023-12-20T02:49:24;228.88;;;101.10;;
47762;SDS011;33526;42.690;23.322;2023-12-20T02:51:50;233.40;;;104.15;;
47762;SDS011;33526;42.690;23.322;2023-12-20T02:54:15;216.07;;;96.60;;
47762;SDS011;33526;42.690;23.322;2023-12-20T02:56:41;218.98;;;97.45;;
47762;SDS011;33526;42.690;23.322;2023-12-20T02:59:06;216.27;;;92.63;;
47762;SDS011;33526;42.690;23.322;2023-12-20T03:01:33;201.88;;;90.28;;
47762;SDS011;33526;42.690;23.322;2023-12-20T03:04:02;209.15;;;88.63;;
47762;SDS011;33526;42.690;23.322;2023-12-20T03:06:27;196.93;;;85.82;;
47762;SDS011;33526;42.690;23.322;2023-12-20T03:08:53;203.90;;;80.47;;
47762;SDS011;33526;42.690;23.322;2023-12-20T03:11:18;190.95;;;79.22;;
47762;SDS011;33526;42.690;23.322;2023-12-20T03:13:44;197.20;;;78.72;;
47762;SDS011;33526;42.690;23.322;2023-12-20T03:16:12;181.48;;;74.55;;
47762;SDS011;33526;42.690;23.322;2023-12-20T03:18:39;166.35;;;70.80;;
47762;SDS011;33526;42.690;23.322;2023-12-20T03:21:05;177.77;;;71.97;;
47762;SDS011;33526;42.690;23.322;2023-12-20T03:23:30;176.75;;;70.68;;
47762;SDS011;33526;42.690;23.322;2023-12-20T03:25:57;183.85;;;73.93;;
47762;SDS011;33526;42.690;23.322;2023-12-20T03:28:23;181.95;;;78.53;;
47762;SDS011;33526;42.690;23.322;2023-12-20T03:30:49;195.38;;;77.50;;
47762;SDS011;33526;42.690;23.322;2023-12-20T03:33:14;184.93;;;78.22;;
47762;SDS011;33526;42.690;23.322;2023-12-20T03:35:40;188.35;;;76.57;;
47762;SDS011;33526;42.690;23.322;2023-12-20T03:38:05;193.10;;;78.32;;
47762;SDS011;33526;42.690;23.322;2023-12-20T03:40:31;205.93;;;76.32;;
47762;SDS011;33526;42.690;23.322;2023-12-20T03:42:57;195.05;;;78.38;;
47762;SDS011;33526;42.690;23.322;2023-12-20T03:45:22;189.82;;;73.35;;
47762;SDS011;33526;42.690;23.322;2023-12-20T03:47:48;202.68;;;79.18;;
47762;SDS011;33526;42.690;23.322;2023-12-20T03:50:13;203.77;;;76.00;;
47762;SDS011;33526;42.690;23.322;2023-12-20T03:52:39;186.50;;;77.45;;
47762;SDS011;33526;42.690;23.322;2023-12-20T03:55:04;210.88;;;81.95;;
47762;SDS011;33526;42.690;23.322;2023-12-20T03:57:30;205.00;;;77.13;;
47762;SDS011;33526;42.690;23.322;2023-12-20T03:59:56;202.70;;;76.28;;
47762;SDS011;33526;42.690;23.322;2023-12-20T04:02:21;192.07;;;77.93;;
47762;SDS011;33526;42.690;23.322;2023-12-20T04:04:46;197.02;;;75.68;;
47762;SDS011;33526;42.690;23.322;2023-12-20T04:07:12;196.38;;;77.38;;
47762;SDS011;33526;42.690;23.322;2023-12-20T04:09:37;212.60;;;81.25;;
47762;SDS011;33526;42.690;23.322;2023-12-20T04:12:03;204.30;;;80.03;;
47762;SDS011;33526;42.690;23.322;2023-12-20T04:14:30;203.27;;;78.43;;
47762;SDS011;33526;42.690;23.322;2023-12-20T04:16:55;205.52;;;79.72;;
47762;SDS011;33526;42.690;23.322;2023-12-20T04:19:20;193.30;;;80.55;;
47762;SDS011;33526;42.690;23.322;2023-12-20T04:21:46;209.05;;;81.60;;
47762;SDS011;33526;42.690;23.322;2023-12-20T04:24:11;221.85;;;88.53;;
47762;SDS011;33526;42.690;23.322;2023-12-20T04:26:37;221.30;;;93.18;;
47762;SDS011;33526;42.690;23.322;2023-12-20T04:29:02;211.88;;;92.78;;
47762;SDS011;33526;42.690;23.322;2023-12-20T04:31:28;221.02;;;96.80;;
47762;SDS011;33526;42.690;23.322;2023-12-20T04:33:53;220.95;;;96.43;;
47762;SDS011;33526;42.690;23.322;2023-12-20T04:36:19;221.35;;;97.10;;
47762;SDS011;33526;42.690;23.322;2023-12-20T04:38:44;216.18;;;96.63;;
47762;SDS011;33526;42.690;23.322;2023-12-20T04:41:10;214.30;;;94.88;;
47762;SDS011;33526;42.690;23.322;2023-12-20T04:43:35;212.20;;;91.75;;
47762;SDS011;33526;42.690;23.322;2023-12-20T04:46:01;211.20;;;87.15;;
47762;SDS011;33526;42.690;23.322;2023-12-20T04:48:26;195.82;;;80.20;;
47762;SDS011;33526;42.690;23.322;2023-12-20T04:50:52;189.93;;;83.43;;
47762;SDS011;33526;42.690;23.322;2023-12-20T04:53:17;194.13;;;81.80;;
47762;SDS011;33526;42.690;23.322;2023-12-20T04:55:43;189.75;;;79.28;;
47762;SDS011;33526;42.690;23.322;2023-12-20T04:58:08;183.30;;;75.55;;
47762;SDS011;33526;42.690;23.322;2023-12-20T05:00:34;172.95;;;71.38;;
47762;SDS011;33526;42.690;23.322;2023-12-20T05:02:59;169.30;;;68.93;;
47762;SDS011;33526;42.690;23.322;2023-12-20T05:05:25;171.25;;;69.00;;
47762;SDS011;33526;42.690;23.322;2023-12-20T05:07:50;232.07;;;77.50;;
47762;SDS011;33526;42.690;23.322;2023-12-20T05:10:16;187.63;;;71.15;;
47762;SDS011;33526;42.690;23.322;2023-12-20T05:12:41;199.00;;;74.40;;
47762;SDS011;33526;42.690;23.322;2023-12-20T05:15:07;173.77;;;72.23;;
47762;SDS011;33526;42.690;23.322;2023-12-20T05:17:33;185.95;;;74.13;;
47762;SDS011;33526;42.690;23.322;2023-12-20T05:19:58;223.05;;;76.50;;
47762;SDS011;33526;42.690;23.322;2023-12-20T05:22:24;226.27;;;79.18;;
47762;SDS011;33526;42.690;23.322;2023-12-20T05:24:50;186.57;;;75.82;;
47762;SDS011;33526;42.690;23.322;2023-12-20T05:27:15;202.35;;;73.88;;
47762;SDS011;33526;42.690;23.322;2023-12-20T05:29:41;191.00;;;74.38;;
47762;SDS011;33526;42.690;23.322;2023-12-20T05:32:06;253.13;;;79.93;;
47762;SDS011;33526;42.690;23.322;2023-12-20T05:34:34;220.15;;;77.45;;
47762;SDS011;33526;42.690;23.322;2023-12-20T05:36:59;230.27;;;80.38;;
47762;SDS011;33526;42.690;23.322;2023-12-20T05:41:52;210.77;;;72.68;;
47762;SDS011;33526;42.690;23.322;2023-12-20T05:44:17;227.77;;;77.38;;
47762;SDS011;33526;42.690;23.322;2023-12-20T05:46:43;210.60;;;76.82;;
47762;SDS011;33526;42.690;23.322;2023-12-20T05:49:08;184.43;;;73.28;;
47762;SDS011;33526;42.690;23.322;2023-12-20T05:51:34;204.90;;;79.82;;
47762;SDS011;33526;42.690;23.322;2023-12-20T05:53:59;213.75;;;79.20;;
47762;SDS011;33526;42.690;23.322;2023-12-20T05:56:25;204.95;;;77.43;;
47762;SDS011;33526;42.690;23.322;2023-12-20T05:58:50;201.35;;;79.55;;
47762;SDS011;33526;42.690;23.322;2023-12-20T06:01:16;209.23;;;85.57;;
47762;SDS011;33526;42.690;23.322;2023-12-20T06:03:44;209.55;;;87.43;;
47762;SDS011;33526;42.690;23.322;2023-12-20T06:06:11;212.77;;;83.40;;
47762;SDS011;33526;42.690;23.322;2023-12-20T06:08:38;221.43;;;87.03;;
47762;SDS011;33526;42.690;23.322;2023-12-20T06:11:03;214.30;;;85.43;;
47762;SDS011;33526;42.690;23.322;2023-12-20T06:13:30;214.82;;;84.35;;
47762;SDS011;33526;42.690;23.322;2023-12-20T06:15:56;205.35;;;84.68;;
47762;SDS011;33526;42.690;23.322;2023-12-20T06:18:21;228.95;;;85.85;;
47762;SDS011;33526;42.690;23.322;2023-12-20T06:20:47;167.18;;;65.57;;
47762;SDS011;33526;42.690;23.322;2023-12-20T06:23:13;199.45;;;79.03;;
47762;SDS011;33526;42.690;23.322;2023-12-20T06:25:38;204.20;;;84.50;;
47762;SDS011;33526;42.690;23.322;2023-12-20T06:28:05;196.55;;;79.25;;
47762;SDS011;33526;42.690;23.322;2023-12-20T06:32:58;201.10;;;78.97;;
47762;SDS011;33526;42.690;23.322;2023-12-20T06:35:26;198.55;;;79.50;;
47762;SDS011;33526;42.690;23.322;2023-12-20T06:37:52;183.15;;;79.45;;
47762;SDS011;33526;42.690;23.322;2023-12-20T06:40:20;187.00;;;79.85;;
47762;SDS011;33526;42.690;23.322;2023-12-20T06:42:45;199.15;;;80.90;;
47762;SDS011;33526;42.690;23.322;2023-12-20T06:45:11;182.73;;;77.78;;
47762;SDS011;33526;42.690;23.322;2023-12-20T06:47:40;195.65;;;78.63;;
47762;SDS011;33526;42.690;23.322;2023-12-20T06:50:05;194.30;;;79.28;;
47762;SDS011;33526;42.690;23.322;2023-12-20T06:52:33;196.15;;;79.18;;
47762;SDS011;33526;42.690;23.322;2023-12-20T06:55:00;204.82;;;80.20;;
47762;SDS011;33526;42.690;23.322;2023-12-20T06:57:29;191.18;;;76.20;;
47762;SDS011;33526;42.690;23.322;2023-12-20T06:59:54;141.67;;;58.43;;
47762;SDS011;33526;42.690;23.322;2023-12-20T07:02:22;188.50;;;75.53;;
47762;SDS011;33526;42.690;23.322;2023-12-20T07:04:51;186.73;;;74.75;;
47762;SDS011;33526;42.690;23.322;2023-12-20T07:07:22;179.82;;;73.90;;
47762;SDS011;33526;42.690;23.322;2023-12-20T07:09:55;179.48;;;75.45;;
47762;SDS011;33526;42.690;23.322;2023-12-20T07:12:27;184.55;;;74.22;;
47762;SDS011;33526;42.690;23.322;2023-12-20T07:14:56;179.57;;;76.18;;
47762;SDS011;33526;42.690;23.322;2023-12-20T07:17:28;182.13;;;77.72;;
47762;SDS011;33526;42.690;23.322;2023-12-20T07:19:57;191.27;;;76.43;;
47762;SDS011;33526;42.690;23.322;2023-12-20T07:22:47;195.68;;;73.53;;
47762;SDS011;33526;42.690;23.322;2023-12-20T07:25:15;190.02;;;78.25;;
47762;SDS011;33526;42.690;23.322;2023-12-20T07:27:43;188.00;;;77.40;;
47762;SDS011;33526;42.690;23.322;2023-12-20T07:30:10;189.02;;;77.95;;
47762;SDS011;33526;42.690;23.322;2023-12-20T07:32:39;194.43;;;76.65;;
47762;SDS011;33526;42.690;23.322;2023-12-20T07:35:09;193.38;;;77.97;;
47762;SDS011;33526;42.690;23.322;2023-12-20T07:37:34;169.73;;;73.55;;
47762;SDS011;33526;42.690;23.322;2023-12-20T07:40:00;176.13;;;73.43;;
47762;SDS011;33526;42.690;23.322;2023-12-20T07:42:26;176.02;;;72.38;;
47762;SDS011;33526;42.690;23.322;2023-12-20T07:44:53;194.38;;;72.40;;
47762;SDS011;33526;42.690;23.322;2023-12-20T07:47:19;187.32;;;73.22;;
47762;SDS011;33526;42.690;23.322;2023-12-20T07:49:47;180.52;;;73.93;;
47762;SDS011;33526;42.690;23.322;2023-12-20T07:54:46;201.63;;;73.55;;
47762;SDS011;33526;42.690;23.322;2023-12-20T07:59:47;177.15;;;69.97;;
47762;SDS011;33526;42.690;23.322;2023-12-20T08:02:18;181.45;;;74.35;;
47762;SDS011;33526;42.690;23.322;2023-12-20T08:04:45;169.93;;;72.95;;
47762;SDS011;33526;42.690;23.322;2023-12-20T08:07:21;175.35;;;74.13;;
47762;SDS011;33526;42.690;23.322;2023-12-20T08:09:50;174.55;;;74.10;;
47762;SDS011;33526;42.690;23.322;2023-12-20T08:12:19;191.77;;;77.00;;
47762;SDS011;33526;42.690;23.322;2023-12-20T08:14:56;189.98;;;76.13;;
47762;SDS011;33526;42.690;23.322;2023-12-20T08:17:24;178.40;;;75.28;;
47762;SDS011;33526;42.690;23.322;2023-12-20T08:19:56;180.90;;;73.90;;
47762;SDS011;33526;42.690;23.322;2023-12-20T08:22:25;172.15;;;71.93;;
47762;SDS011;33526;42.690;23.322;2023-12-20T08:24:58;201.55;;;77.57;;
47762;SDS011;33526;42.690;23.322;2023-12-20T08:28:02;194.15;;;76.97;;
47762;SDS011;33526;42.690;23.322;2023-12-20T08:30:35;191.82;;;76.70;;
47762;SDS011;33526;42.690;23.322;2023-12-20T08:33:00;199.48;;;75.95;;
47762;SDS011;33526;42.690;23.322;2023-12-20T08:35:28;190.90;;;75.35;;
47762;SDS011;33526;42.690;23.322;2023-12-20T08:37:59;201.98;;;79.40;;
47762;SDS011;33526;42.690;23.322;2023-12-20T08:40:34;191.73;;;77.32;;
47762;SDS011;33526;42.690;23.322;2023-12-20T08:45:30;194.32;;;79.30;;
47762;SDS011;33526;42.690;23.322;2023-12-20T08:47:55;205.70;;;77.90;;
47762;SDS011;33526;42.690;23.322;2023-12-20T08:50:21;198.77;;;78.93;;
47762;SDS011;33526;42.690;23.322;2023-12-20T08:52:46;212.75;;;81.65;;
47762;SDS011;33526;42.690;23.322;2023-12-20T08:55:12;207.32;;;81.18;;
47762;SDS011;33526;42.690;23.322;2023-12-20T08:57:38;197.07;;;79.45;;
47762;SDS011;33526;42.690;23.322;2023-12-20T09:00:03;211.40;;;82.70;;
47762;SDS011;33526;42.690;23.322;2023-12-20T09:02:29;145.85;;;60.00;;
47762;SDS011;33526;42.690;23.322;2023-12-20T09:04:55;195.82;;;81.22;;
47762;SDS011;33526;42.690;23.322;2023-12-20T09:07:23;211.75;;;82.63;;
47762;SDS011;33526;42.690;23.322;2023-12-20T09:09:49;203.75;;;84.53;;
47762;SDS011;33526;42.690;23.322;2023-12-20T09:12:19;186.65;;;79.85;;
47762;SDS011;33526;42.690;23.322;2023-12-20T09:14:49;178.38;;;77.63;;
47762;SDS011;33526;42.690;23.322;2023-12-20T09:17:19;170.50;;;76.15;;
47762;SDS011;33526;42.690;23.322;2023-12-20T09:19:47;163.75;;;75.00;;
47762;SDS011;33526;42.690;23.322;2023-12-20T09:22:13;174.75;;;74.68;;
47762;SDS011;33526;42.690;23.322;2023-12-20T09:24:39;439.60;;;190.10;;
47762;SDS011;33526;42.690;23.322;2023-12-20T09:27:05;211.15;;;91.03;;
47762;SDS011;33526;42.690;23.322;2023-12-20T09:29:31;161.88;;;74.47;;
47762;SDS011;33526;42.690;23.322;2023-12-20T09:31:58;168.93;;;72.22;;
47762;SDS011;33526;42.690;23.322;2023-12-20T09:34:25;153.25;;;70.25;;
47762;SDS011;33526;42.690;23.322;2023-12-20T09:36:54;159.15;;;70.70;;
47762;SDS011;33526;42.690;23.322;2023-12-20T09:39:20;195.38;;;88.25;;
47762;SDS011;33526;42.690;23.322;2023-12-20T09:42:09;151.10;;;67.32;;
47762;SDS011;33526;42.690;23.322;2023-12-20T09:44:36;145.35;;;63.13;;
47762;SDS011;33526;42.690;23.322;2023-12-20T09:47:07;151.80;;;64.50;;
47762;SDS011;33526;42.690;23.322;2023-12-20T09:49:54;158.85;;;69.15;;
47762;SDS011;33526;42.690;23.322;2023-12-20T09:52:29;161.23;;;69.88;;
47762;SDS011;33526;42.690;23.322;2023-12-20T09:54:56;148.00;;;66.47;;
47762;SDS011;33526;42.690;23.322;2023-12-20T09:57:32;154.70;;;66.70;;
47762;SDS011;33526;42.690;23.322;2023-12-20T10:00:24;156.65;;;66.90;;
47762;SDS011;33526;42.690;23.322;2023-12-20T10:02:56;163.23;;;69.88;;
47762;SDS011;33526;42.690;23.322;2023-12-20T10:05:26;160.48;;;68.30;;
47762;SDS011;33526;42.690;23.322;2023-12-20T10:07:57;187.50;;;74.82;;
47762;SDS011;33526;42.690;23.322;2023-12-20T10:10:25;214.25;;;83.30;;
47762;SDS011;33526;42.690;23.322;2023-12-20T10:13:05;208.48;;;82.13;;
47762;SDS011;33526;42.690;23.322;2023-12-20T10:15:37;217.75;;;85.82;;
47762;SDS011;33526;42.690;23.322;2023-12-20T10:18:04;182.73;;;73.90;;
47762;SDS011;33526;42.690;23.322;2023-12-20T10:23:00;209.68;;;80.60;;
47762;SDS011;33526;42.690;23.322;2023-12-20T10:25:40;230.40;;;85.13;;
47762;SDS011;33526;42.690;23.322;2023-12-20T10:28:17;215.93;;;83.07;;
47762;SDS011;33526;42.690;23.322;2023-12-20T10:30:51;222.02;;;87.97;;
47762;SDS011;33526;42.690;23.322;2023-12-20T10:33:51;221.82;;;84.72;;
47762;SDS011;33526;42.690;23.322;2023-12-20T10:38:57;166.65;;;62.55;;
47762;SDS011;33526;42.690;23.322;2023-12-20T10:41:36;233.80;;;92.93;;
47762;SDS011;33526;42.690;23.322;2023-12-20T10:44:09;231.25;;;92.25;;
47762;SDS011;33526;42.690;23.322;2023-12-20T10:47:03;250.45;;;94.32;;
47762;SDS011;33526;42.690;23.322;2023-12-20T11:07:43;243.68;;;90.10;;
47762;SDS011;33526;42.690;23.322;2023-12-20T11:10:41;235.65;;;88.03;;
47762;SDS011;33526;42.690;23.322;2023-12-20T11:13:36;234.02;;;87.15;;
47762;SDS011;33526;42.690;23.322;2023-12-20T11:16:13;210.85;;;84.68;;
47762;SDS011;33526;42.690;23.322;2023-12-20T11:18:44;206.57;;;82.97;;
47762;SDS011;33526;42.690;23.322;2023-12-20T11:22:13;210.80;;;78.72;;
47762;SDS011;33526;42.690;23.322;2023-12-20T11:25:21;186.85;;;73.72;;
47762;SDS011;33526;42.690;23.322;2023-12-20T11:28:12;193.93;;;76.07;;
47762;SDS011;33526;42.690;23.322;2023-12-20T11:30:46;199.27;;;76.95;;
47762;SDS011;33526;42.690;23.322;2023-12-20T12:04:44;193.07;;;76.35;;
47762;SDS011;33526;42.690;23.322;2023-12-20T12:07:09;199.30;;;79.70;;
47762;SDS011;33526;42.690;23.322;2023-12-20T12:09:36;197.48;;;77.45;;
47762;SDS011;33526;42.690;23.322;2023-12-20T12:12:02;195.95;;;78.85;;
47762;SDS011;33526;42.690;23.322;2023-12-20T12:14:34;180.95;;;78.25;;
47762;SDS011;33526;42.690;23.322;2023-12-20T12:17:08;194.82;;;77.35;;
47762;SDS011;33526;42.690;23.322;2023-12-20T12:19:44;193.85;;;80.53;;
47762;SDS011;33526;42.690;23.322;2023-12-20T12:22:15;184.60;;;79.60;;
47762;SDS011;33526;42.690;23.322;2023-12-20T12:24:46;184.02;;;78.43;;
47762;SDS011;33526;42.690;23.322;2023-12-20T12:27:20;191.05;;;82.75;;
47762;SDS011;33526;42.690;23.322;2023-12-20T12:30:00;186.45;;;79.93;;
47762;SDS011;33526;42.690;23.322;2023-12-20T12:32:32;172.05;;;74.72;;
47762;SDS011;33526;42.690;23.322;2023-12-20T12:35:04;190.63;;;79.07;;
47762;SDS011;33526;42.690;23.322;2023-12-20T12:37:31;186.73;;;77.85;;
47762;SDS011;33526;42.690;23.322;2023-12-20T12:39:59;188.95;;;79.28;;
47762;SDS011;33526;42.690;23.322;2023-12-20T12:42:24;188.80;;;78.00;;
47762;SDS011;33526;42.690;23.322;2023-12-20T12:44:53;174.93;;;76.10;;
47762;SDS011;33526;42.690;23.322;2023-12-20T12:47:20;207.00;;;81.10;;
47762;SDS011;33526;42.690;23.322;2023-12-20T12:49:45;194.82;;;79.68;;
47762;SDS011;33526;42.690;23.322;2023-12-20T12:52:11;203.00;;;81.28;;
47762;SDS011;33526;42.690;23.322;2023-12-20T12:54:36;193.38;;;80.88;;
47762;SDS011;33526;42.690;23.322;2023-12-20T12:57:02;192.18;;;82.05;;
47762;SDS011;33526;42.690;23.322;2023-12-20T12:59:28;196.85;;;82.55;;
47762;SDS011;33526;42.690;23.322;2023-12-20T13:01:53;208.35;;;83.90;;
47762;SDS011;33526;42.690;23.322;2023-12-20T13:04:19;207.80;;;85.50;;
47762;SDS011;33526;42.690;23.322;2023-12-20T13:06:44;206.40;;;83.78;;
47762;SDS011;33526;42.690;23.322;2023-12-20T13:09:10;233.73;;;95.53;;
47762;SDS011;33526;42.690;23.322;2023-12-20T13:11:35;213.07;;;84.38;;
47762;SDS011;33526;42.690;23.322;2023-12-20T13:14:01;197.43;;;82.45;;
47762;SDS011;33526;42.690;23.322;2023-12-20T13:16:26;210.60;;;85.22;;
47762;SDS011;33526;42.690;23.322;2023-12-20T13:18:52;203.63;;;80.38;;
47762;SDS011;33526;42.690;23.322;2023-12-20T13:21:17;205.07;;;80.50;;
47762;SDS011;33526;42.690;23.322;2023-12-20T13:23:43;219.65;;;85.38;;
47762;SDS011;33526;42.690;23.322;2023-12-20T13:26:08;206.38;;;80.10;;
47762;SDS011;33526;42.690;23.322;2023-12-20T13:28:34;233.48;;;86.10;;
47762;SDS011;33526;42.690;23.322;2023-12-20T13:30:59;219.82;;;84.43;;
47762;SDS011;33526;42.690;23.322;2023-12-20T13:33:25;217.77;;;83.82;;
47762;SDS011;33526;42.690;23.322;2023-12-20T13:35:50;210.30;;;81.78;;
47762;SDS011;33526;42.690;23.322;2023-12-20T13:38:16;226.95;;;81.28;;
47762;SDS011;33526;42.690;23.322;2023-12-20T13:40:42;214.90;;;81.95;;
47762;SDS011;33526;42.690;23.322;2023-12-20T13:43:08;195.63;;;75.43;;
47762;SDS011;33526;42.690;23.322;2023-12-20T13:45:36;181.65;;;74.78;;
47762;SDS011;33526;42.690;23.322;2023-12-20T13:48:04;177.68;;;70.68;;
47762;SDS011;33526;42.690;23.322;2023-12-20T13:50:30;190.95;;;70.97;;
47762;SDS011;33526;42.690;23.322;2023-12-20T13:52:55;174.98;;;67.63;;
47762;SDS011;33526;42.690;23.322;2023-12-20T13:55:20;173.07;;;68.28;;
47762;SDS011;33526;42.690;23.322;2023-12-20T13:57:50;181.20;;;68.97;;
47762;SDS011;33526;42.690;23.322;2023-12-20T14:00:15;178.13;;;68.05;;
47762;SDS011;33526;42.690;23.322;2023-12-20T14:02:41;171.80;;;68.03;;
47762;SDS011;33526;42.690;23.322;2023-12-20T14:05:08;168.90;;;65.47;;
47762;SDS011;33526;42.690;23.322;2023-12-20T14:07:34;134.45;;;51.50;;
47762;SDS011;33526;42.690;23.322;2023-12-20T14:09:59;185.07;;;70.38;;
47762;SDS011;33526;42.690;23.322;2023-12-20T14:12:25;189.60;;;72.45;;
47762;SDS011;33526;42.690;23.322;2023-12-20T14:14:50;205.35;;;78.50;;
47762;SDS011;33526;42.690;23.322;2023-12-20T14:17:16;208.00;;;74.07;;
47762;SDS011;33526;42.690;23.322;2023-12-20T14:19:42;201.45;;;75.75;;
47762;SDS011;33526;42.690;23.322;2023-12-20T14:22:08;212.77;;;81.85;;
47762;SDS011;33526;42.690;23.322;2023-12-20T14:24:34;206.77;;;76.35;;
47762;SDS011;33526;42.690;23.322;2023-12-20T14:27:00;207.73;;;79.65;;
47762;SDS011;33526;42.690;23.322;2023-12-20T14:29:26;213.07;;;79.25;;
47762;SDS011;33526;42.690;23.322;2023-12-20T14:31:52;216.10;;;79.15;;
47762;SDS011;33526;42.690;23.322;2023-12-20T14:34:17;234.50;;;80.90;;
47762;SDS011;33526;42.690;23.322;2023-12-20T14:36:43;243.63;;;84.25;;
47762;SDS011;33526;42.690;23.322;2023-12-20T14:39:08;235.38;;;83.53;;
47762;SDS011;33526;42.690;23.322;2023-12-20T14:41:37;252.60;;;85.70;;
47762;SDS011;33526;42.690;23.322;2023-12-20T14:46:30;261.35;;;84.18;;
47762;SDS011;33526;42.690;23.322;2023-12-20T14:48:55;243.30;;;82.65;;
47762;SDS011;33526;42.690;23.322;2023-12-20T14:51:21;245.27;;;85.18;;
47762;SDS011;33526;42.690;23.322;2023-12-20T14:53:46;237.23;;;82.70;;
47762;SDS011;33526;42.690;23.322;2023-12-20T14:56:12;257.33;;;89.30;;
47762;SDS011;33526;42.690;23.322;2023-12-20T14:58:37;280.67;;;90.30;;
47762;SDS011;33526;42.690;23.322;2023-12-20T15:01:03;260.25;;;86.70;;
47762;SDS011;33526;42.690;23.322;2023-12-20T15:03:29;290.63;;;99.80;;
47762;SDS011;33526;42.690;23.322;2023-12-20T15:05:55;260.67;;;87.75;;
47762;SDS011;33526;42.690;23.322;2023-12-20T15:08:23;274.70;;;91.95;;